Terminal Aerodrome Forecast
Issued by NWS Tulsa, OK

Home | Current Version | Previous Version | Text Only | Print | Product List | Glossary On
Versions: 1 2 3 4 5 6 7 8 9 10 11 12 13
000
FTUS44 KTSA 282300
TAFTUL
TAF
KTUL 282320Z 2900/2924 14011KT P6SM SCT070 SCT250
     FM290600 16008KT P6SM VCSH SCT050 OVC250
     FM291200 18008KT P6SM SCT050 OVC250 PROB30 2914/2918 4SM -TSRA
      BR OVC040CB
     FM291800 20007KT P6SM BKN250 PROB30 2918/2924 P6SM -TSRA
      BKN050CB=

USA.gov is the U.S. government's official web portal to all federal, state and local government web resources and services.